Time;durP1;ratioP1;P1;durP2;ratioP2;P2;SDS_P1;SDS_P2;PMS_P1;PMS_P2;Temp;Humidity;BMP_temperature;BMP_pressure;BME280_temperature;BME280_humidity;BME280_pressure;Samples;Min_cycle;Max_cycle;Signal;HPM_P1;HPM_P2
2021/10/14 00:00:49;;;;;;;2.53;1.43;;;;;;;9.47;72.55;99882.94;5051883;28;41993;-76
2021/10/14 00:03:16;;;;;;;3.37;1.70;;;;;;;9.39;73.36;99885.91;5069937;28;39990;-76
2021/10/14 00:05:44;;;;;;;2.73;1.70;;;;;;;9.31;73.60;99877.41;5051916;28;40628;-76
2021/10/14 00:08:11;;;;;;;2.80;1.87;;;;;;;9.28;73.54;99888.13;5051683;28;41632;-76
2021/10/14 00:10:39;;;;;;;1.93;1.53;;;;;;;9.25;73.60;99890.91;5068011;28;43212;-76
2021/10/14 00:13:08;;;;;;;2.77;1.90;;;;;;;9.25;73.57;99888.25;5068522;28;40185;-78
2021/10/14 00:15:36;;;;;;;4.80;1.93;;;;;;;9.27;73.76;99891.72;5067416;28;41676;-76
2021/10/14 00:18:03;;;;;;;2.77;1.67;;;;;;;9.30;73.38;99891.56;5070088;28;42736;-76
2021/10/14 00:20:31;;;;;;;1.53;1.40;;;;;;;9.33;73.50;99902.00;5047070;28;42306;-75
2021/10/14 00:22:59;;;;;;;2.33;1.50;;;;;;;9.35;73.02;99903.69;5031644;28;39248;-76
2021/10/14 00:25:26;;;;;;;1.67;1.33;;;;;;;9.38;73.21;99899.19;5047844;28;41677;-76
2021/10/14 00:27:54;;;;;;;1.90;1.40;;;;;;;9.40;72.83;99898.19;5047967;28;43029;-76
2021/10/14 00:30:23;;;;;;;1.77;1.27;;;;;;;9.44;72.89;99899.78;5063568;28;42313;-76
2021/10/14 00:32:50;;;;;;;1.80;1.17;;;;;;;9.49;72.95;99908.41;5068828;28;39873;-76
2021/10/14 00:35:17;;;;;;;2.53;1.90;;;;;;;9.55;72.61;99902.84;5068118;28;41504;-76
2021/10/14 00:37:45;;;;;;;1.93;1.73;;;;;;;9.48;72.52;99885.53;5067956;28;42556;-76
2021/10/14 00:40:14;;;;;;;2.40;1.47;;;;;;;9.62;72.75;99896.41;5067194;28;42446;-76
2021/10/14 00:42:43;;;;;;;1.23;1.13;;;;;;;9.62;72.85;99893.75;5070237;28;39755;-76
2021/10/14 00:45:12;;;;;;;2.47;2.10;;;;;;;9.63;72.53;99891.97;5070136;28;42033;-76
2021/10/14 00:47:41;;;;;;;1.53;1.23;;;;;;;9.62;72.86;99885.81;5054937;28;41915;-75
2021/10/14 00:50:10;;;;;;;2.47;1.23;;;;;;;9.63;72.56;99889.31;5070756;28;41944;-76
2021/10/14 00:52:40;;;;;;;2.13;1.27;;;;;;;9.64;72.53;99889.22;5070997;28;39665;-76
2021/10/14 00:55:11;;;;;;;2.33;1.60;;;;;;;9.66;72.84;99882.09;5071409;28;42373;-76
2021/10/14 00:57:39;;;;;;;2.27;1.80;;;;;;;9.67;72.40;99881.19;5070197;28;42868;-76
2021/10/14 01:00:08;;;;;;;2.87;1.80;;;;;;;9.68;73.10;99880.25;5072655;28;43092;-78
2021/10/14 01:02:36;;;;;;;2.07;1.87;;;;;;;9.71;72.82;99872.19;5054136;28;38524;-76
2021/10/14 01:05:06;;;;;;;2.23;1.77;;;;;;;9.73;72.83;99878.28;5071625;28;40842;-76
2021/10/14 01:07:34;;;;;;;3.27;1.70;;;;;;;9.73;73.23;99870.34;5070934;28;42802;-76
2021/10/14 01:10:02;;;;;;;2.60;1.37;;;;;;;9.73;72.85;99867.69;5072367;28;42304;-76
2021/10/14 01:12:30;;;;;;;2.90;2.10;;;;;;;9.67;73.02;99849.44;5070794;28;40845;-76
2021/10/14 01:14:58;;;;;;;2.60;2.23;;;;;;;9.76;72.96;99852.63;5066427;28;40615;-76
2021/10/14 01:17:25;;;;;;;3.23;1.63;;;;;;;9.75;73.19;99851.78;5069820;28;43066;-76
2021/10/14 01:19:54;;;;;;;1.37;1.03;;;;;;;9.73;73.00;99854.47;5054585;28;41943;-76
2021/10/14 01:22:22;;;;;;;4.73;2.13;;;;;;;9.76;72.98;99849.97;5070984;28;39891;-76
2021/10/14 01:24:49;;;;;;;3.97;1.77;;;;;;;9.77;72.79;99854.34;5069872;28;40543;-76
2021/10/14 01:27:17;;;;;;;2.93;1.53;;;;;;;9.79;73.18;99847.19;5070579;28;42421;-76
2021/10/14 01:29:44;;;;;;;1.77;1.43;;;;;;;9.78;73.04;99837.53;5069949;28;41102;-76
2021/10/14 01:32:12;;;;;;;1.77;1.23;;;;;;;9.84;72.88;99845.22;5053590;28;38709;-75
2021/10/14 01:34:40;;;;;;;2.37;1.23;;;;;;;9.87;72.73;99850.38;5070383;28;42383;-76
2021/10/14 01:37:08;;;;;;;3.13;1.40;;;;;;;9.89;72.48;99845.88;5071635;28;42999;-76
2021/10/14 01:39:36;;;;;;;2.27;1.53;;;;;;;9.92;72.16;99837.78;5070348;28;41186;-76
2021/10/14 01:42:04;;;;;;;1.27;1.10;;;;;;;9.93;72.13;99831.56;5070877;28;39884;-76
2021/10/14 01:44:31;;;;;;;3.10;1.70;;;;;;;9.95;71.88;99832.38;5053606;28;40565;-76
2021/10/14 01:46:59;;;;;;;3.53;1.60;;;;;;;9.96;72.29;99834.09;5071544;28;43707;-76
2021/10/14 01:49:26;;;;;;;3.43;1.73;;;;;;;9.96;72.39;99834.09;5070311;28;42194;-76
2021/10/14 01:51:53;;;;;;;5.87;2.00;;;;;;;9.95;72.31;99833.22;5069729;28;39617;-76
2021/10/14 01:54:22;;;;;;;3.57;1.60;;;;;;;9.95;72.52;99832.38;5069514;28;40656;-75
2021/10/14 01:56:50;;;;;;;3.27;1.90;;;;;;;9.95;72.26;99822.63;5070054;28;42606;-76
2021/10/14 01:59:17;;;;;;;1.50;1.40;;;;;;;9.93;72.27;99818.34;5053107;28;41927;-76
2021/10/14 02:01:45;;;;;;;1.50;1.40;;;;;;;9.90;72.36;99819.31;5070457;28;39255;-76
2021/10/14 02:04:12;;;;;;;1.37;1.27;;;;;;;9.97;72.16;99834.03;5069260;28;42636;-76
2021/10/14 02:06:40;;;;;;;1.67;1.37;;;;;;;9.93;72.33;99823.63;5070266;28;41738;-76
2021/10/14 02:09:08;;;;;;;2.30;1.60;;;;;;;9.92;72.51;99821.91;5052857;28;42266;-76
2021/10/14 02:11:38;;;;;;;2.30;1.37;;;;;;;10.01;72.48;99834.75;5069670;28;39765;-76
2021/10/14 02:14:05;;;;;;;2.37;1.80;;;;;;;10.04;72.38;99834.59;5071475;28;42965;-76
2021/10/14 02:16:33;;;;;;;1.20;1.00;;;;;;;10.02;72.22;99824.06;5053081;28;42029;-76
2021/10/14 02:19:01;;;;;;;2.73;1.83;;;;;;;10.09;72.43;99827.31;5069633;28;41180;-76
2021/10/14 02:21:29;;;;;;;2.07;1.70;;;;;;;10.07;72.01;99819.44;5069638;28;40028;-76
2021/10/14 02:23:56;;;;;;;2.43;1.73;;;;;;;10.10;72.45;99831.69;5069331;28;41041;-76
2021/10/14 02:26:24;;;;;;;3.00;2.00;;;;;;;10.11;72.55;99821.97;5052458;28;42990;-76
2021/10/14 02:28:53;;;;;;;1.93;1.67;;;;;;;10.08;72.70;99817.66;5053358;28;41307;-76
2021/10/14 02:31:21;;;;;;;2.50;1.43;;;;;;;10.10;72.38;99821.09;5069120;28;38724;-76
2021/10/14 02:33:48;;;;;;;2.57;1.23;;;;;;;10.07;72.41;99806.22;5069162;28;40765;-76
2021/10/14 02:36:16;;;;;;;1.87;1.23;;;;;;;10.14;72.44;99816.53;5070520;28;42198;-76
2021/10/14 02:38:44;;;;;;;1.63;1.53;;;;;;;10.16;72.19;99820.81;5070132;28;42216;-76
2021/10/14 02:41:11;;;;;;;1.80;1.70;;;;;;;10.18;72.13;99818.97;5069079;28;40862;-76
2021/10/14 02:43:39;;;;;;;2.30;1.50;;;;;;;10.19;72.36;99818.06;5069958;28;41923;-76
2021/10/14 02:46:08;;;;;;;1.60;1.40;;;;;;;10.19;72.29;99804.81;5068765;28;41659;-76
2021/10/14 02:48:36;;;;;;;1.60;1.27;;;;;;;10.20;72.29;99809.19;5069035;28;42402;-76
2021/10/14 02:51:03;;;;;;;1.40;1.30;;;;;;;10.10;72.29;99786.69;5068688;28;40772;-76
2021/10/14 02:53:32;;;;;;;1.47;1.37;;;;;;;10.18;72.16;99808.41;5069219;28;42584;-76
2021/10/14 02:55:59;;;;;;;2.43;1.50;;;;;;;10.16;72.05;99796.13;5069145;28;42679;-75
2021/10/14 02:58:27;;;;;;;2.27;1.60;;;;;;;10.22;72.41;99796.75;5069368;28;43196;-76
2021/10/14 03:00:54;;;;;;;1.87;1.50;;;;;;;10.23;72.29;99789.66;5052535;28;39044;-76
2021/10/14 03:03:24;;;;;;;1.33;1.00;;;;;;;10.20;72.53;99790.66;5052671;28;40993;-76
2021/10/14 03:05:51;;;;;;;2.10;1.10;;;;;;;10.20;72.52;99803.91;5068581;28;43596;-76
2021/10/14 03:08:19;;;;;;;1.60;1.40;;;;;;;10.22;72.36;99794.09;5068189;28;42259;-76
2021/10/14 03:10:47;;;;;;;2.13;1.87;;;;;;;10.23;72.28;99797.59;5069674;28;39132;-76
2021/10/14 03:13:15;;;;;;;1.60;1.50;;;;;;;10.23;72.65;99793.19;5068744;28;40719;-76
2021/10/14 03:15:42;;;;;;;1.70;1.50;;;;;;;10.18;72.63;99795.16;5069239;28;42909;-76
2021/10/14 03:18:10;;;;;;;2.73;1.33;;;;;;;10.24;72.64;99792.25;5051636;28;42249;-76
2021/10/14 03:20:39;;;;;;;2.47;1.47;;;;;;;10.26;72.68;99808.06;5068803;28;39183;-76
2021/10/14 03:23:07;;;;;;;1.97;1.40;;;;;;;10.24;72.65;99797.53;5069388;28;42432;-77
2021/10/14 03:25:34;;;;;;;1.80;1.50;;;;;;;10.28;72.51;99807.03;5051888;28;41587;-75
2021/10/14 08:39:13;;;;;;;4.53;3.70;;;;;;;10.90;86.68;99845.59;5180631;27;21040;-73
2021/10/14 08:41:44;;;;;;;4.80;3.27;;;;;;;11.52;84.63;99846.94;5167901;27;39713;-73
2021/10/14 08:44:14;;;;;;;6.53;4.03;;;;;;;12.15;80.57;99841.94;5168735;27;41577;-73
2021/10/14 08:46:42;;;;;;;4.00;2.73;;;;;;;12.62;76.39;99849.13;5168648;27;43794;-73
2021/10/14 08:49:10;;;;;;;4.27;2.67;;;;;;;12.95;75.28;99841.94;5150069;27;41836;-78
2021/10/14 08:51:39;;;;;;;5.27;3.23;;;;;;;13.18;72.95;99846.84;5168145;27;40259;-74
2021/10/14 08:54:06;;;;;;;3.60;2.83;;;;;;;13.29;71.75;99849.75;5168005;27;42708;-73
2021/10/14 08:56:42;;;;;;;5.10;2.80;;;;;;;13.43;71.57;99837.44;5168009;27;43063;-73
2021/10/14 08:59:10;;;;;;;4.87;2.70;;;;;;;13.59;70.39;99848.91;5149906;27;42346;-74
2021/10/14 09:01:37;;;;;;;4.33;2.13;;;;;;;13.73;70.25;99846.25;5167233;27;39933;-73
2021/10/14 09:04:12;;;;;;;5.07;2.53;;;;;;;13.78;69.88;99852.19;5168454;27;42725;-72
2021/10/14 09:06:40;;;;;;;3.53;2.30;;;;;;;13.83;69.86;99860.75;5166877;27;41736;-73
2021/10/14 09:09:08;;;;;;;3.97;2.57;;;;;;;13.87;69.35;99856.94;5150351;27;41234;-74
2021/10/14 09:11:37;;;;;;;3.07;2.10;;;;;;;13.91;69.12;99854.97;5167717;27;40549;-73
2021/10/14 09:14:08;;;;;;;4.23;2.37;;;;;;;13.89;69.12;99836.41;5168155;27;42268;-77
2021/10/14 09:16:42;;;;;;;3.13;2.60;;;;;;;14.02;68.31;99852.50;5150227;27;42023;-79
2021/10/14 09:19:13;;;;;;;2.00;1.80;;;;;;;14.08;68.26;99851.28;5167034;27;42655;-73
2021/10/14 09:21:41;;;;;;;3.23;2.40;;;;;;;14.10;67.84;99849.38;5165976;27;39646;-75
2021/10/14 09:24:28;;;;;;;3.20;2.63;;;;;;;14.14;67.60;99845.56;5167367;27;41702;-76
2021/10/14 09:26:59;;;;;;;2.90;2.20;;;;;;;14.17;67.87;99840.06;5166753;27;41733;-76
2021/10/14 09:29:28;;;;;;;2.23;2.00;;;;;;;14.19;67.48;99838.16;5201849;27;42734;-76
2021/10/14 09:31:59;;;;;;;3.40;2.10;;;;;;;14.25;66.98;99832.44;5201305;27;41478;-77
2021/10/14 09:34:34;;;;;;;4.40;2.13;;;;;;;14.34;67.33;99837.22;5167443;27;41760;-77
2021/10/14 09:37:04;;;;;;;2.37;2.10;;;;;;;14.35;66.59;99844.25;5166419;27;41740;-77
2021/10/14 09:39:32;;;;;;;3.20;2.60;;;;;;;14.36;66.48;99845.97;5167109;27;42347;-76
2021/10/14 09:42:01;;;;;;;2.70;2.50;;;;;;;14.37;66.65;99839.69;5167699;27;39716;-77
2021/10/14 09:44:48;;;;;;;2.10;1.90;;;;;;;14.40;66.71;99844.84;5167341;27;41063;-76
2021/10/14 09:47:16;;;;;;;2.93;2.10;;;;;;;14.42;66.87;99840.28;5166705;27;42951;-76
2021/10/14 09:49:43;;;;;;;3.43;2.13;;;;;;;14.48;66.86;99849.69;5158590;27;42002;-77
2021/10/14 09:52:11;;;;;;;3.17;2.30;;;;;;;14.51;66.75;99834.38;5152228;27;40295;-78
2021/10/14 09:54:38;;;;;;;3.77;2.23;;;;;;;14.53;66.17;99845.81;5153284;27;41783;-77
2021/10/14 09:57:07;;;;;;;2.73;2.37;;;;;;;14.61;66.07;99835.50;5152978;27;42690;-78
2021/10/14 09:59:35;;;;;;;6.43;2.40;;;;;;;14.71;65.91;99847.28;5152733;27;41435;-77
2021/10/14 10:02:04;;;;;;;4.20;2.60;;;;;;;14.80;65.42;99847.69;5152884;27;39056;-77
2021/10/14 10:04:33;;;;;;;2.70;2.10;;;;;;;14.90;65.27;99840.78;5153782;27;42361;-79
2021/10/14 10:07:05;;;;;;;3.20;2.00;;;;;;;15.01;64.79;99831.13;5153718;27;42944;-77
2021/10/14 10:09:40;;;;;;;2.77;1.90;;;;;;;15.13;63.86;99839.28;5152908;27;40945;-77
2021/10/14 10:12:11;;;;;;;1.47;1.37;;;;;;;15.19;63.69;99845.09;5135222;27;40232;-77
2021/10/14 10:14:39;;;;;;;2.93;1.43;;;;;;;15.25;62.92;99850.00;5152255;27;42658;-78
2021/10/14 10:17:08;;;;;;;1.73;1.60;;;;;;;15.20;62.56;99841.47;5134342;27;43125;-78
2021/10/14 10:19:45;;;;;;;3.50;1.60;;;;;;;15.36;62.85;99851.97;5153432;27;42234;-78
2021/10/14 10:22:50;;;;;;;2.47;1.53;;;;;;;15.39;61.81;99854.44;5152414;27;40020;-78
2021/10/14 10:25:19;;;;;;;1.77;1.40;;;;;;;15.43;61.90;99843.47;5135508;27;41807;-77
2021/10/14 10:27:48;;;;;;;1.40;1.30;;;;;;;15.68;62.06;99847.19;5151805;27;42958;-78
2021/10/14 10:30:27;;;;;;;2.07;1.40;;;;;;;15.95;61.68;99841.78;5151138;27;42226;-78
2021/10/14 10:32:55;;;;;;;2.43;1.80;;;;;;;16.23;60.99;99846.91;5152294;27;38913;-77
2021/10/14 10:35:40;;;;;;;1.70;1.53;;;;;;;16.50;60.82;99849.47;5152680;27;41696;-77
2021/10/14 10:38:19;;;;;;;2.50;1.53;;;;;;;16.64;60.66;99852.03;5150723;27;43897;-78
2021/10/14 10:40:49;;;;;;;1.37;1.23;;;;;;;16.76;59.72;99847.63;5153335;27;43330;-78
2021/10/14 10:43:22;;;;;;;1.43;1.30;;;;;;;16.84;58.90;99848.78;5151661;27;39122;-78
2021/10/14 10:45:53;;;;;;;2.10;1.60;;;;;;;16.91;57.41;99841.19;5151770;27;41499;-78
2021/10/14 10:48:33;;;;;;;1.77;1.43;;;;;;;16.84;56.86;99850.59;5152325;27;43748;-77
2021/10/14 10:51:10;;;;;;;1.57;1.23;;;;;;;16.73;57.92;99837.16;5153061;27;42243;-79
2021/10/14 10:53:40;;;;;;;1.40;1.20;;;;;;;16.69;58.31;99838.34;5153078;27;40073;-77
2021/10/14 10:56:26;;;;;;;1.50;1.37;;;;;;;16.66;58.35;99834.06;5151952;27;41689;-80
2021/10/14 10:58:56;;;;;;;3.20;1.87;;;;;;;16.65;56.71;99843.06;5150721;27;42199;-77
2021/10/14 11:01:24;;;;;;;1.23;1.13;;;;;;;16.46;55.71;99838.13;5149942;27;41070;-77
2021/10/14 11:03:54;;;;;;;1.60;1.50;;;;;;;16.50;55.75;99844.13;5152253;27;39995;-77
2021/10/14 11:06:23;;;;;;;1.43;1.33;;;;;;;16.46;56.19;99842.59;5169261;27;41847;-78
2021/10/14 11:08:52;;;;;;;2.23;1.60;;;;;;;16.39;55.20;99841.34;5134286;27;43242;-77
2021/10/14 11:11:21;;;;;;;1.13;1.03;;;;;;;16.14;55.81;99821.69;5152220;27;42157;-77
2021/10/14 11:13:51;;;;;;;1.50;1.13;;;;;;;15.99;56.91;99820.09;5135523;27;39040;-77
2021/10/14 11:16:24;;;;;;;1.63;1.00;;;;;;;16.02;57.66;99833.25;5150862;27;40701;-77
2021/10/14 11:18:55;;;;;;;1.40;1.30;;;;;;;15.91;57.13;99830.44;5134565;27;43273;-77
2021/10/14 11:21:25;;;;;;;2.20;1.07;;;;;;;15.83;57.55;99816.75;5134296;27;41274;-77
2021/10/14 11:23:55;;;;;;;1.27;1.07;;;;;;;15.79;57.08;99823.28;5150997;27;41343;-77
2021/10/14 11:26:30;;;;;;;1.77;1.30;;;;;;;15.74;57.75;99822.72;5134031;27;40653;-77
2021/10/14 11:29:01;;;;;;;1.77;1.40;;;;;;;15.70;57.60;99813.25;5150372;27;41773;-77
2021/10/14 11:31:35;;;;;;;1.20;1.10;;;;;;;15.77;58.09;99811.84;5151055;27;42520;-77
2021/10/14 11:34:13;;;;;;;3.57;1.00;;;;;;;15.83;58.06;99811.41;5186447;27;40751;-77
2021/10/14 11:36:49;;;;;;;1.20;1.10;;;;;;;15.83;58.40;99800.72;5149618;27;42552;-77
2021/10/14 11:39:17;;;;;;;1.30;1.10;;;;;;;15.89;58.49;99805.66;5163200;27;43203;-77
2021/10/14 11:41:45;;;;;;;1.37;1.20;;;;;;;15.94;57.54;99824.91;5150250;27;41077;-77
2021/10/14 11:44:13;;;;;;;1.03;0.90;;;;;;;15.85;57.95;99796.13;5149478;27;40002;-77
2021/10/14 11:46:42;;;;;;;1.30;1.00;;;;;;;15.84;57.84;99797.09;5131591;27;41694;-77
2021/10/14 11:49:12;;;;;;;1.93;1.30;;;;;;;15.76;57.09;99800.31;5132237;27;43728;-78
2021/10/14 11:51:40;;;;;;;1.73;1.30;;;;;;;15.67;57.27;99800.09;5131787;27;42500;-78
2021/10/14 11:54:11;;;;;;;1.53;1.10;;;;;;;15.66;57.49;99796.56;5132349;27;40342;-77
2021/10/14 11:56:44;;;;;;;2.83;1.73;;;;;;;15.62;57.71;99796.84;5115950;27;40750;-77
2021/10/14 11:59:13;;;;;;;1.97;1.20;;;;;;;15.54;57.52;99788.50;5132271;27;42861;-77
2021/10/14 12:01:49;;;;;;;2.73;1.10;;;;;;;15.52;57.84;99785.06;5114445;27;41834;-77
2021/10/14 12:04:20;;;;;;;3.77;1.43;;;;;;;15.46;58.16;99787.19;5115696;27;39074;-77
2021/10/14 12:06:49;;;;;;;1.63;1.10;;;;;;;15.39;57.79;99791.25;5133331;27;41594;-76
2021/10/14 12:09:18;;;;;;;1.83;1.73;;;;;;;15.33;58.19;99786.28;5114610;27;42820;-77
2021/10/14 12:11:46;;;;;;;2.03;1.10;;;;;;;15.30;57.92;99791.00;5149799;27;42233;-77
2021/10/14 12:14:24;;;;;;;1.67;1.00;;;;;;;15.26;58.17;99779.69;5118782;27;38825;-77
2021/10/14 12:17:07;;;;;;;0.77;0.77;;;;;;;15.22;57.89;99780.81;5144955;27;40992;-77
2021/10/14 12:19:39;;;;;;;1.13;1.00;;;;;;;15.22;58.30;99786.16;5131422;27;42911;-78
2021/10/14 12:22:08;;;;;;;1.57;0.83;;;;;;;15.20;59.19;99776.56;5114714;27;41103;-78
2021/10/14 12:24:52;;;;;;;2.07;1.03;;;;;;;15.20;58.46;99780.09;5157181;27;40481;-76
2021/10/14 12:27:20;;;;;;;0.97;0.93;;;;;;;15.19;58.46;99778.38;5158138;27;41626;-76
2021/10/14 12:29:50;;;;;;;1.10;0.90;;;;;;;15.09;59.00;99754.09;5131725;27;43483;-77
2021/10/14 12:32:22;;;;;;;2.53;1.20;;;;;;;15.19;59.21;99778.38;5114153;27;42244;-76
2021/10/14 12:34:59;;;;;;;1.30;0.93;;;;;;;15.16;59.01;99778.59;5114579;27;38811;-77
2021/10/14 12:37:29;;;;;;;2.07;1.10;;;;;;;15.10;59.55;99770.97;5150770;27;42379;-76
2021/10/14 12:40:20;;;;;;;1.93;1.10;;;;;;;15.13;59.58;99769.91;5114516;27;41633;-77
2021/10/14 12:42:57;;;;;;;1.00;0.90;;;;;;;15.11;59.43;99772.69;5150970;27;42101;-76
2021/10/14 12:45:30;;;;;;;1.43;1.10;;;;;;;15.03;59.88;99751.88;5131738;27;38895;-77
2021/10/14 12:48:13;;;;;;;1.20;1.10;;;;;;;15.14;59.87;99769.81;5149097;27;41389;-76
2021/10/14 12:51:18;;;;;;;1.13;1.03;;;;;;;15.14;60.23;99752.94;5130165;27;43303;-77
2021/10/14 12:53:47;;;;;;;1.23;1.00;;;;;;;15.10;60.01;99768.31;5131199;27;41466;-76
2021/10/14 12:56:17;;;;;;;1.17;1.00;;;;;;;14.98;60.54;99758.44;5130240;27;39891;-76
2021/10/14 12:58:46;;;;;;;1.10;1.00;;;;;;;14.94;60.76;99746.28;5149149;27;40599;-76
2021/10/14 13:01:17;;;;;;;1.27;0.80;;;;;;;14.98;60.90;99742.44;5125941;27;41444;-77
2021/10/14 13:03:47;;;;;;;1.50;1.33;;;;;;;15.04;61.10;99734.03;5148624;27;42280;-76
2021/10/14 13:06:15;;;;;;;1.80;0.97;;;;;;;15.22;60.73;99735.47;5130166;27;38782;-77
2021/10/14 13:08:43;;;;;;;1.07;0.87;;;;;;;15.29;60.48;99728.75;5149758;27;42434;-77
2021/10/14 13:11:13;;;;;;;1.13;0.90;;;;;;;15.45;60.17;99742.75;5130884;27;43091;-77
2021/10/14 13:13:42;;;;;;;1.10;1.00;;;;;;;15.57;60.20;99734.94;5149039;27;43354;-76
2021/10/14 13:16:11;;;;;;;1.70;0.90;;;;;;;15.35;59.92;99682.97;5149651;27;40826;-76
2021/10/14 13:18:39;;;;;;;1.63;1.53;;;;;;;15.70;59.91;99733.94;5128440;27;40667;-76
2021/10/14 13:21:09;;;;;;;3.83;1.30;;;;;;;15.75;60.11;99728.28;5149898;27;43478;-77
2021/10/14 13:23:37;;;;;;;1.67;1.30;;;;;;;15.79;60.55;99727.13;5113547;27;42607;-77
2021/10/14 13:26:05;;;;;;;1.77;1.67;;;;;;;15.80;60.06;99726.16;5152978;27;39986;-77
2021/10/14 13:28:34;;;;;;;1.20;0.87;;;;;;;15.86;59.67;99717.72;5134911;27;40761;-76
2021/10/14 13:31:04;;;;;;;2.40;1.07;;;;;;;15.95;59.55;99719.72;5169697;27;42624;-75
2021/10/14 13:33:34;;;;;;;2.03;1.00;;;;;;;16.07;59.21;99712.69;5152834;27;42262;-76
2021/10/14 13:36:05;;;;;;;2.93;1.40;;;;;;;16.23;58.91;99723.09;5134368;27;38839;-77
2021/10/14 13:38:35;;;;;;;3.20;1.50;;;;;;;16.33;58.97;99718.78;5117202;27;41361;-77
2021/10/14 13:41:05;;;;;;;0.83;0.83;;;;;;;16.39;58.57;99724.56;5134658;27;42033;-78
2021/10/14 13:43:35;;;;;;;1.60;1.27;;;;;;;16.43;57.99;99719.84;5134272;27;43165;-76
2021/10/14 13:46:02;;;;;;;1.27;0.83;;;;;;;16.44;58.31;99716.22;5117823;27;39867;-78
2021/10/14 13:48:30;;;;;;;1.07;1.00;;;;;;;16.47;58.35;99715.97;5152466;27;40859;-77
2021/10/14 13:50:58;;;;;;;1.07;0.93;;;;;;;16.46;57.94;99711.59;5118245;27;41662;-77
2021/10/14 13:53:26;;;;;;;1.00;1.00;;;;;;;16.38;57.95;99692.59;5133556;27;40911;-76
2021/10/14 13:55:55;;;;;;;1.10;0.93;;;;;;;16.43;57.94;99714.50;5134297;27;39799;-77
2021/10/14 13:58:23;;;;;;;1.77;1.53;;;;;;;16.41;58.15;99705.75;5134710;27;41578;-76
2021/10/14 14:00:51;;;;;;;2.40;1.40;;;;;;;16.43;57.97;99701.16;5153458;27;42844;-76
2021/10/14 14:03:19;;;;;;;1.30;1.20;;;;;;;16.36;58.01;99695.38;5152200;27;42424;-77
2021/10/14 14:05:47;;;;;;;1.13;0.90;;;;;;;16.40;58.48;99698.69;5152341;27;40867;-77
2021/10/14 14:08:15;;;;;;;1.20;1.10;;;;;;;16.38;58.04;99696.13;5152772;27;41551;-76
2021/10/14 14:10:43;;;;;;;1.17;1.07;;;;;;;16.35;58.54;99685.66;5135055;27;43148;-76
2021/10/14 14:13:12;;;;;;;1.00;1.00;;;;;;;16.39;58.50;99691.63;5133214;27;42124;-76
2021/10/14 14:15:42;;;;;;;1.23;0.90;;;;;;;16.34;57.94;99696.44;5133993;27;40687;-76
2021/10/14 14:18:10;;;;;;;1.63;0.90;;;;;;;16.24;58.70;99687.38;5116761;27;42017;-77
2021/10/14 14:20:41;;;;;;;1.70;1.07;;;;;;;16.26;59.28;99686.31;5169283;27;43465;-77
2021/10/14 14:23:08;;;;;;;1.30;1.20;;;;;;;16.20;59.13;99683.22;5133692;27;41939;-77
2021/10/14 14:25:36;;;;;;;1.97;1.27;;;;;;;16.03;58.72;99669.28;5134072;27;40668;-76
2021/10/14 14:28:04;;;;;;;2.23;1.30;;;;;;;16.03;58.89;99681.78;5152233;27;41569;-76
2021/10/14 14:30:33;;;;;;;2.60;1.13;;;;;;;16.00;58.82;99682.84;5134438;27;41476;-77
2021/10/14 14:33:02;;;;;;;1.30;1.03;;;;;;;15.96;59.25;99677.81;5133374;27;41197;-77
2021/10/14 14:35:30;;;;;;;2.43;1.10;;;;;;;15.94;59.35;99679.78;5152761;27;40459;-76
2021/10/14 14:37:57;;;;;;;1.37;1.27;;;;;;;15.96;59.59;99673.34;5116491;27;40850;-76
2021/10/14 14:40:26;;;;;;;1.70;1.30;;;;;;;16.01;59.46;99671.19;5151476;27;43601;-77
2021/10/14 14:42:54;;;;;;;1.00;0.80;;;;;;;16.05;59.38;99683.38;5134408;27;41926;-78
2021/10/14 14:45:22;;;;;;;1.63;1.23;;;;;;;16.04;59.74;99676.34;5134292;27;38865;-77
2021/10/14 14:47:53;;;;;;;1.40;1.30;;;;;;;16.00;59.74;99674.84;5151999;27;41754;-77
2021/10/14 14:50:39;;;;;;;1.20;1.10;;;;;;;16.02;59.61;99672.06;5129214;27;42945;-77
2021/10/14 14:53:06;;;;;;;0.90;0.90;;;;;;;16.06;59.62;99673.56;5119789;27;41260;-77
2021/10/14 14:55:34;;;;;;;1.20;1.20;;;;;;;16.05;59.89;99678.06;5152743;27;39559;-76
2021/10/14 14:58:01;;;;;;;1.60;0.90;;;;;;;16.01;60.15;99673.88;5151776;27;42475;-77
2021/10/14 15:00:29;;;;;;;1.27;1.10;;;;;;;15.83;59.96;99651.13;5132921;27;43639;-77
2021/10/14 15:02:59;;;;;;;1.30;1.13;;;;;;;15.89;60.20;99660.53;5152929;27;43882;-77
2021/10/14 15:05:26;;;;;;;1.60;1.43;;;;;;;15.85;59.89;99669.72;5116758;27;38846;-76
2021/10/14 15:07:54;;;;;;;2.87;1.10;;;;;;;15.81;60.33;99663.78;5132818;27;40931;-77
2021/10/14 15:10:21;;;;;;;1.50;1.23;;;;;;;15.80;60.30;99664.72;5150206;27;44412;-77
2021/10/14 15:12:49;;;;;;;1.13;1.07;;;;;;;15.73;60.31;99656.28;5146834;27;43239;-77
2021/10/14 15:15:16;;;;;;;1.53;1.20;;;;;;;15.65;60.35;99647.13;5133735;27;40891;-77
2021/10/14 15:17:44;;;;;;;1.03;1.00;;;;;;;15.73;60.56;99655.44;5150016;27;42811;-76
2021/10/14 15:20:13;;;;;;;1.07;1.03;;;;;;;15.68;60.60;99657.59;5123858;27;42010;-77
2021/10/14 15:22:42;;;;;;;1.40;1.30;;;;;;;15.64;60.28;99648.06;5131306;27;42185;-77
2021/10/14 15:25:09;;;;;;;1.07;0.97;;;;;;;15.60;60.72;99655.44;5132167;27;40330;-77
2021/10/14 15:27:37;;;;;;;1.33;1.17;;;;;;;15.56;60.66;99655.78;5158798;27;42886;-76
2021/10/14 15:30:06;;;;;;;1.50;0.87;;;;;;;15.51;60.97;99648.06;5128546;27;43926;-76
2021/10/14 15:32:33;;;;;;;0.90;0.90;;;;;;;15.53;60.91;99647.94;5159370;27;42830;-76
2021/10/14 15:35:01;;;;;;;1.30;1.20;;;;;;;15.50;61.07;99648.16;5159236;27;40083;-77
2021/10/14 15:37:31;;;;;;;1.57;1.27;;;;;;;15.51;61.00;99655.22;5131955;27;41985;-76
2021/10/14 15:39:59;;;;;;;1.30;1.20;;;;;;;15.48;60.99;99656.25;5131765;27;42389;-76
2021/10/14 15:42:26;;;;;;;1.27;1.10;;;;;;;15.43;61.45;99651.28;5149884;27;42334;-77
2021/10/14 15:44:54;;;;;;;1.20;1.10;;;;;;;15.32;61.17;99647.66;5133086;27;39895;-77
2021/10/14 15:47:23;;;;;;;1.77;1.10;;;;;;;15.30;61.54;99653.09;5131689;27;42547;-77
2021/10/14 15:49:51;;;;;;;1.33;1.00;;;;;;;15.29;61.98;99662.03;5150901;27;43306;-76
2021/10/14 15:52:18;;;;;;;0.80;0.80;;;;;;;15.24;61.94;99653.50;5131911;27;42378;-78
2021/10/14 15:54:47;;;;;;;1.20;1.10;;;;;;;15.20;61.93;99654.69;5132551;27;39405;-76
2021/10/14 15:57:15;;;;;;;0.97;0.70;;;;;;;15.12;62.28;99642.81;5131723;27;42092;-76
2021/10/14 15:59:43;;;;;;;1.73;1.27;;;;;;;15.13;62.74;99653.38;5151511;27;42712;-77
2021/10/14 16:02:10;;;;;;;1.13;1.07;;;;;;;15.10;62.34;99656.25;5150718;27;42290;-77
2021/10/14 16:04:38;;;;;;;1.47;1.10;;;;;;;15.05;62.50;99655.72;5141364;27;40323;-77
2021/10/14 16:07:06;;;;;;;1.43;0.90;;;;;;;15.02;62.71;99666.59;5145082;27;42951;-77
2021/10/14 16:09:33;;;;;;;1.37;1.00;;;;;;;14.99;62.48;99653.47;5156019;27;42496;-78
2021/10/14 16:12:03;;;;;;;1.57;1.07;;;;;;;14.96;62.83;99659.03;5148284;27;43024;-77
2021/10/14 16:14:31;;;;;;;1.60;1.27;;;;;;;14.82;63.17;99632.44;5130317;27;40380;-77
2021/10/14 16:16:59;;;;;;;1.20;1.10;;;;;;;14.89;62.78;99647.91;5130954;27;42516;-76
2021/10/14 16:19:27;;;;;;;2.23;2.13;;;;;;;14.85;63.10;99640.19;5150726;27;43209;-77
2021/10/14 16:21:55;;;;;;;1.70;1.50;;;;;;;14.83;63.22;99644.81;5131052;27;42179;-77
2021/10/14 16:24:22;;;;;;;2.03;1.20;;;;;;;14.80;63.34;99639.66;5131595;27;39835;-77
2021/10/14 16:26:51;;;;;;;1.80;1.40;;;;;;;14.78;63.45;99641.59;5150219;27;41759;-76
2021/10/14 16:29:21;;;;;;;0.80;0.80;;;;;;;14.74;63.21;99638.25;5149711;27;43534;-77
2021/10/14 16:31:53;;;;;;;1.83;1.73;;;;;;;14.57;63.58;99609.22;5150023;27;42213;-77
2021/10/14 16:34:25;;;;;;;3.00;1.30;;;;;;;14.69;63.95;99637.72;5151164;27;40351;-78
2021/10/14 16:36:53;;;;;;;2.67;1.50;;;;;;;14.60;63.71;99631.19;5164890;27;41739;-77
2021/10/14 16:39:21;;;;;;;2.07;1.10;;;;;;;14.54;64.20;99631.59;5130210;27;42342;-77
2021/10/14 16:41:49;;;;;;;1.00;1.00;;;;;;;14.50;64.10;99634.56;5150149;27;42388;-76
2021/10/14 16:44:17;;;;;;;1.33;1.10;;;;;;;14.46;64.21;99628.59;5167437;27;40862;-77
2021/10/14 16:46:46;;;;;;;1.70;1.33;;;;;;;14.44;64.45;99625.19;5154708;27;41905;-77
2021/10/14 16:49:15;;;;;;;1.23;1.13;;;;;;;14.37;64.19;99623.81;5131716;27;41695;-77
2021/10/14 16:51:45;;;;;;;1.10;1.00;;;;;;;14.32;64.65;99625.94;5169179;27;42305;-77
2021/10/14 16:54:13;;;;;;;1.00;0.83;;;;;;;14.28;64.98;99621.75;5135019;27;40856;-77
2021/10/14 16:56:43;;;;;;;1.17;0.80;;;;;;;14.24;64.78;99620.25;5147289;27;42761;-76